createdAt,value
2023-04-02T00:00:37.680Z,2.27
2023-04-02T00:03:08.848Z,2.57
2023-04-02T00:05:50.331Z,2.40
2023-04-02T00:08:25.190Z,2.13
2023-04-02T00:11:01.173Z,2.37
2023-04-02T00:13:39.526Z,1.53
2023-04-02T00:16:08.623Z,1.90
2023-04-02T00:18:41.723Z,3.03
2023-04-02T00:21:11.767Z,2.17
2023-04-02T00:23:41.231Z,2.13
2023-04-02T00:26:43.433Z,2.70
2023-04-02T00:29:13.245Z,3.30
2023-04-02T00:31:46.277Z,2.50
2023-04-02T00:34:23.908Z,2.60
2023-04-02T00:36:52.332Z,2.30
2023-04-02T00:39:41.543Z,2.20
2023-04-02T00:42:12.958Z,2.53
2023-04-02T00:44:44.681Z,3.43
2023-04-02T00:47:22.717Z,3.07
2023-04-02T00:50:01.514Z,2.97
2023-04-02T00:52:31.808Z,3.70
2023-04-02T00:55:21.041Z,3.37
2023-04-02T00:57:49.737Z,4.53
2023-04-02T01:00:19.639Z,3.57
2023-04-02T01:03:13.267Z,3.73
2023-04-02T01:05:42.566Z,3.83
2023-04-02T01:08:27.575Z,3.60
2023-04-02T01:11:04.151Z,3.10
2023-04-02T01:13:40.982Z,3.17
2023-04-02T01:16:17.986Z,3.30
2023-04-02T01:18:57.483Z,3.03
2023-04-02T01:22:08.079Z,2.50
2023-04-02T01:24:37.505Z,2.50
2023-04-02T01:27:19.773Z,2.60
2023-04-02T01:29:56.748Z,2.57
2023-04-02T01:32:26.937Z,2.50
2023-04-02T01:34:54.709Z,2.77
2023-04-02T01:37:28.028Z,2.07
2023-04-02T01:40:17.662Z,2.63
2023-04-02T01:42:44.606Z,2.03
2023-04-02T01:45:14.739Z,2.60
2023-04-02T01:47:43.842Z,3.07
2023-04-02T01:50:20.043Z,3.00
2023-04-02T01:52:50.709Z,3.00
2023-04-02T01:55:24.493Z,2.90
2023-04-02T01:57:54.398Z,2.70
2023-04-02T02:00:22.592Z,2.97
2023-04-02T02:02:54.244Z,3.90
2023-04-02T02:05:23.241Z,4.13
2023-04-02T02:07:52.683Z,4.97
2023-04-02T02:10:27.506Z,4.73
2023-04-02T02:12:54.753Z,6.83
2023-04-02T02:15:23.961Z,6.27
2023-04-02T02:17:55.353Z,6.00
2023-04-02T02:20:22.761Z,6.93
2023-04-02T02:22:51.240Z,7.80
2023-04-02T02:25:27.020Z,8.57
2023-04-02T02:28:07.919Z,8.27
2023-04-02T02:30:47.380Z,8.90
2023-04-02T02:33:23.547Z,8.77
2023-04-02T02:36:24.734Z,9.63
2023-04-02T02:38:54.230Z,10.63
2023-04-02T02:41:42.868Z,11.73
2023-04-02T02:44:13.133Z,11.07
2023-04-02T02:47:06.941Z,13.80
2023-04-02T02:49:39.426Z,12.97
2023-04-02T02:52:10.199Z,11.73
2023-04-02T02:54:52.020Z,14.20
2023-04-02T02:57:25.004Z,14.17
2023-04-02T02:59:55.324Z,14.33
2023-04-02T03:02:23.436Z,14.03
2023-04-02T03:04:53.612Z,13.07
2023-04-02T03:07:26.537Z,14.07
2023-04-02T03:10:01.740Z,14.07
2023-04-02T03:12:32.110Z,14.53
2023-04-02T03:15:32.414Z,15.77
2023-04-02T03:18:17.927Z,20.67
2023-04-02T03:20:49.641Z,24.93
2023-04-02T03:23:36.640Z,26.97
2023-04-02T03:26:25.696Z,29.13
2023-04-02T03:29:17.848Z,33.73
2023-04-02T03:31:54.889Z,36.57
2023-04-02T03:34:32.876Z,38.57
2023-04-02T03:37:25.064Z,37.37
2023-04-02T03:40:08.861Z,39.80
2023-04-02T03:42:49.849Z,40.37
2023-04-02T03:45:17.806Z,43.83
2023-04-02T03:47:54.809Z,43.67
2023-04-02T03:50:34.467Z,45.03
2023-04-02T03:53:03.757Z,45.53
2023-04-02T03:55:37.001Z,45.03
2023-04-02T03:58:29.272Z,48.10
2023-04-02T04:01:04.446Z,46.50
2023-04-02T04:04:09.902Z,48.33
2023-04-02T04:06:42.505Z,46.90
2023-04-02T04:09:38.736Z,46.53
2023-04-02T04:12:28.717Z,47.10
2023-04-02T04:15:04.654Z,49.50
2023-04-02T04:17:40.573Z,50.70
2023-04-02T04:20:22.083Z,50.30
2023-04-02T04:22:55.791Z,51.57
2023-04-02T04:25:30.672Z,53.07
2023-04-02T04:28:21.500Z,53.30
2023-04-02T04:30:53.989Z,53.53
2023-04-02T04:33:26.429Z,52.33
2023-04-02T04:36:01.030Z,56.07
2023-04-02T04:38:39.563Z,56.93
2023-04-02T04:41:22.650Z,55.17
2023-04-02T04:44:11.707Z,53.43
2023-04-02T04:46:41.263Z,53.70
2023-04-02T04:49:11.184Z,54.23
2023-04-02T04:52:34.350Z,54.67
2023-04-02T04:55:04.253Z,55.23
2023-04-02T04:57:40.013Z,53.20
2023-04-02T05:00:14.293Z,53.83
2023-04-02T05:03:19.344Z,53.70
2023-04-02T05:05:46.930Z,50.67
2023-04-02T05:08:27.211Z,50.70
2023-04-02T05:11:14.689Z,51.50
2023-04-02T05:13:53.713Z,52.00
2023-04-02T05:16:36.823Z,48.37
2023-04-02T05:19:10.066Z,47.77
2023-04-02T05:21:47.710Z,45.40
2023-04-02T05:24:37.896Z,46.37
2023-04-02T05:27:38.085Z,45.17
2023-04-02T05:30:28.457Z,46.23
2023-04-02T05:33:14.338Z,44.70
2023-04-02T05:35:49.582Z,44.53
2023-04-02T05:38:21.941Z,45.30
2023-04-02T05:41:00.845Z,49.47
2023-04-02T05:43:32.035Z,49.70
2023-04-02T05:46:03.752Z,45.67
2023-04-02T05:48:40.992Z,45.90
2023-04-02T05:51:16.479Z,46.83
2023-04-02T05:53:56.933Z,45.57
2023-04-02T05:56:26.388Z,43.57
2023-04-02T05:59:24.616Z,44.70
2023-04-02T06:02:22.250Z,43.90
2023-04-02T06:05:13.313Z,45.53
2023-04-02T06:07:48.288Z,46.27
2023-04-02T06:10:24.833Z,45.20
2023-04-02T06:13:06.670Z,45.37
2023-04-02T06:15:39.016Z,45.13
2023-04-02T06:18:30.047Z,45.03
2023-04-02T06:20:58.100Z,46.57
2023-04-02T06:23:50.051Z,46.20
2023-04-02T06:26:35.230Z,45.77
2023-04-02T06:29:39.590Z,47.97
2023-04-02T06:32:10.813Z,45.43
2023-04-02T06:34:42.578Z,45.50
2023-04-02T06:37:14.887Z,48.30
2023-04-02T06:39:43.379Z,46.03
2023-04-02T06:42:13.028Z,46.83
2023-04-02T06:45:02.400Z,44.93
2023-04-02T06:47:57.194Z,44.90
2023-04-02T06:50:51.445Z,45.93
2023-04-02T06:53:25.024Z,45.67
2023-04-02T06:56:20.825Z,46.03
2023-04-02T06:58:48.581Z,45.93
2023-04-02T07:01:24.194Z,43.50
2023-04-02T07:03:51.710Z,44.23
2023-04-02T07:06:24.941Z,46.20
2023-04-02T07:08:54.565Z,51.20
2023-04-02T07:11:23.161Z,51.63
2023-04-02T07:13:53.107Z,54.13
2023-04-02T07:16:25.690Z,52.90
2023-04-02T07:18:55.870Z,52.30
2023-04-02T07:21:28.116Z,55.07
2023-04-02T07:23:55.832Z,53.83
2023-04-02T07:26:26.625Z,48.30
2023-04-02T07:28:55.789Z,45.47
2023-04-02T07:31:28.128Z,44.53
2023-04-02T07:33:59.834Z,41.70
2023-04-02T07:36:29.151Z,41.90
2023-04-02T07:38:56.098Z,43.53
2023-04-02T07:41:23.558Z,41.70
2023-04-02T07:43:50.632Z,40.17
2023-04-02T07:46:19.210Z,38.63
2023-04-02T07:48:47.402Z,37.63
2023-04-02T07:51:19.721Z,36.60
2023-04-02T07:53:50.325Z,36.60
2023-04-02T07:56:19.694Z,36.27
2023-04-02T07:58:47.337Z,37.93
2023-04-02T08:01:29.637Z,41.37
2023-04-02T08:03:58.147Z,36.57
2023-04-02T08:06:25.973Z,37.97
2023-04-02T08:08:53.086Z,38.93
2023-04-02T08:11:20.475Z,37.00
2023-04-02T08:13:47.867Z,36.20
2023-04-02T08:16:14.944Z,34.97
2023-04-02T08:18:41.969Z,33.47
2023-04-02T08:21:10.619Z,31.33
2023-04-02T08:23:37.859Z,31.70
2023-04-02T08:26:05.797Z,31.73
2023-04-02T08:28:32.753Z,29.57
2023-04-02T08:30:59.912Z,30.77
2023-04-02T08:33:27.162Z,30.40
2023-04-02T08:35:54.234Z,31.23
2023-04-02T08:38:22.457Z,31.17
2023-04-02T08:40:51.871Z,30.17
2023-04-02T08:43:24.782Z,28.03
2023-04-02T08:46:01.878Z,27.07
2023-04-02T08:48:32.738Z,22.97
2023-04-02T08:51:00.653Z,26.00
2023-04-02T08:53:41.966Z,25.37
2023-04-02T08:56:24.079Z,24.43
2023-04-02T08:58:56.076Z,24.13
2023-04-02T09:01:49.199Z,23.50
2023-04-02T09:04:20.058Z,25.50
2023-04-02T09:06:47.793Z,23.90
2023-04-02T09:09:16.530Z,22.00
2023-04-02T09:11:52.816Z,24.87
2023-04-02T09:14:24.708Z,25.03
2023-04-02T09:16:54.775Z,23.23
2023-04-02T09:19:33.009Z,23.77
2023-04-02T09:22:26.280Z,20.93
2023-04-02T09:24:55.812Z,22.00
2023-04-02T09:27:26.446Z,17.73
2023-04-02T09:30:22.940Z,16.20
2023-04-02T09:32:58.103Z,10.63
2023-04-02T09:35:28.701Z,11.43
2023-04-02T09:38:07.864Z,14.70
2023-04-02T09:40:56.234Z,15.90
2023-04-02T09:43:31.645Z,14.13
2023-04-02T09:46:03.176Z,10.63
2023-04-02T09:48:36.147Z,13.20
2023-04-02T09:51:12.378Z,12.47
2023-04-02T09:53:42.882Z,16.80
2023-04-02T09:56:23.418Z,13.07
2023-04-02T09:59:05.810Z,8.60
2023-04-02T10:01:38.977Z,10.83
2023-04-02T10:04:27.334Z,9.53
2023-04-02T10:06:57.941Z,10.00
2023-04-02T10:09:34.008Z,7.57
2023-04-02T10:12:04.454Z,10.90
2023-04-02T10:14:39.758Z,7.73
2023-04-02T10:17:30.884Z,9.43
2023-04-02T10:20:20.065Z,12.00
2023-04-02T10:22:47.374Z,15.83
2023-04-02T10:25:16.206Z,16.77
2023-04-02T10:27:50.184Z,15.03
2023-04-02T10:30:35.017Z,14.43
2023-04-02T10:33:33.184Z,14.03
2023-04-02T10:36:35.005Z,12.33
2023-04-02T10:39:21.763Z,8.90
2023-04-02T10:42:17.129Z,8.67
2023-04-02T10:45:22.620Z,9.00
2023-04-02T10:48:11.472Z,11.00
2023-04-02T10:50:55.573Z,10.80
2023-04-02T10:53:45.303Z,11.77
2023-04-02T10:56:14.303Z,10.00
2023-04-02T10:59:24.427Z,9.93
2023-04-02T11:01:52.876Z,8.67
2023-04-02T11:04:27.561Z,8.73
2023-04-02T11:07:13.124Z,7.13
2023-04-02T11:09:45.401Z,3.47
2023-04-02T11:12:20.221Z,3.87
2023-04-02T11:14:47.937Z,4.97
2023-04-02T11:17:16.714Z,4.30
2023-04-02T11:19:44.396Z,5.00
2023-04-02T11:22:29.635Z,6.97
2023-04-02T11:24:58.211Z,7.83
2023-04-02T11:27:29.194Z,6.83
2023-04-02T11:30:22.585Z,6.13
2023-04-02T11:32:51.069Z,6.60
2023-04-02T11:35:44.423Z,5.77
2023-04-02T11:38:22.173Z,5.20
2023-04-02T11:41:00.856Z,4.70
2023-04-02T11:43:33.817Z,3.90
2023-04-02T11:46:02.218Z,4.70
2023-04-02T11:48:31.062Z,2.63
2023-04-02T11:50:58.404Z,2.03
2023-04-02T11:53:34.888Z,1.67
2023-04-02T11:56:28.260Z,1.23
2023-04-02T11:59:19.210Z,1.90
2023-04-02T12:02:07.260Z,1.57
2023-04-02T12:05:15.625Z,2.20
2023-04-02T12:07:46.732Z,1.60
2023-04-02T12:10:18.399Z,1.47
2023-04-02T12:12:45.497Z,1.40
2023-04-02T12:15:46.250Z,1.23
2023-04-02T12:18:17.513Z,1.20
2023-04-02T12:20:53.472Z,1.70
2023-04-02T12:23:29.672Z,1.63
2023-04-02T12:25:59.251Z,1.70
2023-04-02T12:28:31.141Z,1.40
2023-04-02T12:31:09.868Z,2.50
2023-04-02T12:33:40.999Z,1.90
2023-04-02T12:36:22.612Z,2.20
2023-04-02T12:38:57.911Z,2.30
2023-04-02T12:41:29.981Z,1.70
2023-04-02T12:44:02.242Z,2.07
2023-04-02T12:46:31.655Z,1.50
2023-04-02T12:49:13.341Z,1.63
2023-04-02T12:51:40.713Z,1.70
2023-04-02T12:54:13.128Z,3.67
2023-04-02T12:56:40.024Z,4.13
2023-04-02T12:59:24.463Z,4.40
2023-04-02T13:02:00.764Z,4.53
2023-04-02T13:04:28.350Z,5.00
2023-04-02T13:06:56.290Z,5.43
2023-04-02T13:09:50.102Z,5.93
2023-04-02T13:12:34.891Z,5.47
2023-04-02T13:15:08.074Z,5.47
2023-04-02T13:18:01.816Z,5.10
2023-04-02T13:20:29.102Z,4.33
2023-04-02T13:22:56.636Z,4.60
2023-04-02T13:25:32.064Z,4.30
2023-04-02T13:27:59.180Z,4.40
2023-04-02T13:30:28.729Z,4.70
2023-04-02T13:32:56.500Z,3.77
2023-04-02T13:35:23.699Z,4.23
2023-04-02T13:37:50.793Z,5.07
2023-04-02T13:40:19.335Z,5.53
2023-04-02T13:42:48.781Z,4.60
2023-04-02T13:45:39.247Z,3.70
2023-04-02T13:48:07.261Z,4.53
2023-04-02T13:50:36.216Z,4.30
2023-04-02T13:53:10.606Z,3.93
2023-04-02T13:55:42.074Z,4.37
2023-04-02T13:58:10.741Z,3.70
2023-04-02T14:00:38.135Z,4.27
2023-04-02T14:03:21.346Z,3.60
2023-04-02T14:06:00.834Z,3.43
2023-04-02T14:08:49.580Z,3.40
2023-04-02T14:11:47.407Z,4.30
2023-04-02T14:14:32.927Z,3.90
2023-04-02T14:17:09.209Z,5.13
2023-04-02T14:19:39.374Z,10.27
2023-04-02T14:22:12.028Z,10.83
2023-04-02T14:24:48.424Z,12.90
2023-04-02T14:27:31.241Z,12.50
2023-04-02T14:30:32.061Z,10.80
2023-04-02T14:33:14.096Z,10.93
2023-04-02T14:35:47.115Z,9.00
2023-04-02T14:38:25.904Z,6.90
2023-04-02T14:41:11.552Z,6.13
2023-04-02T14:44:03.141Z,5.40
2023-04-02T14:46:34.884Z,4.93
2023-04-02T14:49:21.541Z,3.30
2023-04-02T14:51:59.700Z,3.33
2023-04-02T14:54:59.209Z,3.50
2023-04-02T14:57:31.823Z,4.13
2023-04-02T15:00:02.083Z,4.17
2023-04-02T15:02:55.827Z,4.33
2023-04-02T15:05:42.972Z,4.03
2023-04-02T15:08:22.302Z,3.93
2023-04-02T15:11:08.455Z,4.17
2023-04-02T15:13:42.179Z,4.60
2023-04-02T15:16:16.598Z,4.50
2023-04-02T15:18:43.782Z,4.30
2023-04-02T15:21:19.674Z,4.60
2023-04-02T15:23:59.050Z,4.10
2023-04-02T15:27:25.122Z,4.47
2023-04-02T15:30:01.473Z,4.00
2023-04-02T15:32:47.002Z,4.13
2023-04-02T15:35:41.492Z,4.50
2023-04-02T15:38:21.596Z,4.80
2023-04-02T15:41:15.291Z,5.10
2023-04-02T15:43:48.248Z,4.83
2023-04-02T15:46:36.477Z,4.47
2023-04-02T15:49:12.768Z,4.87
2023-04-02T15:51:52.964Z,4.30
2023-04-02T15:54:42.671Z,4.30
2023-04-02T15:57:18.337Z,3.77
2023-04-02T16:00:22.242Z,4.80
2023-04-02T16:03:03.804Z,4.20
2023-04-02T16:05:39.506Z,4.50
2023-04-02T16:08:12.633Z,4.93
2023-04-02T16:10:43.080Z,4.73
2023-04-02T16:13:34.824Z,5.03
2023-04-02T16:16:13.472Z,4.63
2023-04-02T16:18:55.743Z,3.60
2023-04-02T16:21:27.427Z,3.87
2023-04-02T16:23:54.450Z,3.70
2023-04-02T16:26:34.380Z,3.90
2023-04-02T16:29:19.465Z,3.80
2023-04-02T16:32:01.458Z,3.57
2023-04-02T16:34:57.650Z,3.60
2023-04-02T16:37:34.627Z,4.03
2023-04-02T16:41:04.706Z,3.87
2023-04-02T16:44:06.256Z,4.20
2023-04-02T16:46:41.993Z,4.07
2023-04-02T16:49:27.104Z,4.33
2023-04-02T16:52:10.048Z,4.40
2023-04-02T16:54:53.707Z,3.70
2023-04-02T16:57:39.674Z,4.73
2023-04-02T17:00:32.410Z,4.07
2023-04-02T17:03:18.286Z,5.00
2023-04-02T17:06:06.909Z,4.73
2023-04-02T17:08:44.104Z,4.97
2023-04-02T17:11:36.678Z,4.63
2023-04-02T17:14:32.729Z,4.90
2023-04-02T17:17:03.153Z,5.23
2023-04-02T17:19:32.573Z,5.67
2023-04-02T17:22:04.901Z,5.10
2023-04-02T17:24:42.471Z,4.77
2023-04-02T17:27:30.355Z,4.90
2023-04-02T17:30:17.999Z,5.37
2023-04-02T17:32:45.410Z,4.53
2023-04-02T17:35:46.488Z,5.70
2023-04-02T17:38:26.302Z,5.93
2023-04-02T17:41:02.706Z,6.17
2023-04-02T17:43:53.575Z,6.43
2023-04-02T17:46:34.736Z,6.47
2023-04-02T17:49:13.360Z,6.10
2023-04-02T17:51:56.416Z,6.30
2023-04-02T17:54:23.365Z,5.17
2023-04-02T17:56:55.876Z,5.90
2023-04-02T17:59:32.456Z,5.10
2023-04-02T18:02:10.162Z,5.93
2023-04-02T18:04:48.892Z,5.50
2023-04-02T18:07:36.137Z,5.97
2023-04-02T18:10:18.457Z,5.97
2023-04-02T18:13:01.924Z,6.10
2023-04-02T18:15:56.352Z,5.00
2023-04-02T18:19:05.842Z,5.17
2023-04-02T18:21:38.332Z,5.30
2023-04-02T18:24:34.111Z,5.07
2023-04-02T18:27:22.762Z,4.90
2023-04-02T18:30:09.441Z,4.60
2023-04-02T18:33:14.115Z,5.00
2023-04-02T18:36:05.239Z,4.77
2023-04-02T18:38:41.222Z,5.53
2023-04-02T18:41:23.021Z,5.90
2023-04-02T18:44:11.258Z,5.80
2023-04-02T18:47:10.904Z,6.10
2023-04-02T18:49:54.024Z,5.53
2023-04-02T18:52:21.501Z,5.37
2023-04-02T18:55:06.192Z,5.90
2023-04-02T18:57:36.122Z,4.83
2023-04-02T19:00:26.472Z,4.23
2023-04-02T19:03:14.164Z,5.07
2023-04-02T19:05:59.576Z,4.33
2023-04-02T19:08:36.108Z,3.37
2023-04-02T19:11:16.532Z,4.40
2023-04-02T19:13:49.030Z,3.83
2023-04-02T19:16:39.412Z,4.53
2023-04-02T19:19:21.300Z,4.77
2023-04-02T19:21:54.206Z,4.27
2023-04-02T19:24:43.372Z,5.23
2023-04-02T19:27:28.980Z,7.57
2023-04-02T19:30:04.840Z,5.90
2023-04-02T19:32:56.562Z,4.97
2023-04-02T19:35:29.133Z,6.17
2023-04-02T19:38:23.893Z,6.30
2023-04-02T19:41:03.114Z,5.97
2023-04-02T19:43:30.371Z,3.80
2023-04-02T19:45:57.595Z,4.47
2023-04-02T19:48:27.741Z,4.93
2023-04-02T19:50:54.896Z,4.50
2023-04-02T19:53:22.074Z,5.10
2023-04-02T19:55:49.098Z,5.53
2023-04-02T19:58:35.120Z,6.53
2023-04-02T20:01:02.739Z,5.43
2023-04-02T20:03:30.853Z,5.67
2023-04-02T20:05:59.837Z,6.07
2023-04-02T20:08:27.408Z,4.73
2023-04-02T20:10:54.950Z,5.33
2023-04-02T20:13:22.048Z,4.83
2023-04-02T20:15:49.728Z,6.80
2023-04-02T20:18:16.621Z,5.37
2023-04-02T20:20:46.841Z,3.50
2023-04-02T20:23:14.516Z,1.97
2023-04-02T20:25:46.458Z,1.90
2023-04-02T20:28:14.370Z,1.67
2023-04-02T20:30:41.354Z,1.77
2023-04-02T20:33:08.503Z,1.50
2023-04-02T20:35:37.626Z,2.17
2023-04-02T20:38:06.686Z,1.77
2023-04-02T20:40:33.864Z,2.50
2023-04-02T20:43:01.118Z,2.70
2023-04-02T20:45:29.272Z,2.60
2023-04-02T20:47:56.643Z,3.20
2023-04-02T20:50:23.687Z,2.20
2023-04-02T20:52:51.547Z,2.60
2023-04-02T20:55:18.838Z,2.63
2023-04-02T20:57:45.970Z,6.73
2023-04-02T21:00:13.530Z,4.80
2023-04-02T21:02:40.584Z,3.87
2023-04-02T21:05:07.862Z,5.77
2023-04-02T21:07:34.831Z,6.27
2023-04-02T21:10:01.827Z,6.30
2023-04-02T21:12:28.882Z,3.80
2023-04-02T21:15:00.234Z,2.97
2023-04-02T21:17:29.336Z,3.53
2023-04-02T21:19:56.271Z,4.73
2023-04-02T21:22:23.862Z,3.90
2023-04-02T21:24:51.505Z,4.43
2023-04-02T21:27:18.470Z,6.03
2023-04-02T21:29:45.392Z,4.30
2023-04-02T21:32:21.412Z,4.10
2023-04-02T21:34:49.164Z,3.13
2023-04-02T21:37:16.168Z,4.10
2023-04-02T21:39:43.188Z,3.93
2023-04-02T21:42:11.356Z,4.40
2023-04-02T21:44:38.487Z,5.13
2023-04-02T21:47:05.530Z,5.87
2023-04-02T21:49:32.534Z,6.60
2023-04-02T21:51:59.620Z,6.77
2023-04-02T21:54:26.612Z,6.93
2023-04-02T21:56:53.673Z,7.03
2023-04-02T21:59:20.798Z,8.10
2023-04-02T22:01:50.327Z,7.77
2023-04-02T22:04:20.724Z,7.90
2023-04-02T22:06:48.754Z,8.80
2023-04-02T22:09:18.739Z,8.20
2023-04-02T22:11:54.643Z,8.43
2023-04-02T22:14:22.010Z,8.10
2023-04-02T22:16:49.070Z,8.30
2023-04-02T22:19:17.119Z,9.27
2023-04-02T22:21:45.012Z,8.43
2023-04-02T22:24:14.442Z,8.50
2023-04-02T22:26:42.033Z,8.80
2023-04-02T22:29:09.312Z,8.40
2023-04-02T22:31:36.815Z,8.03
2023-04-02T22:34:05.665Z,7.90
2023-04-02T22:36:33.501Z,8.37
2023-04-02T22:39:01.806Z,8.40
2023-04-02T22:41:29.693Z,9.13
2023-04-02T22:43:57.219Z,8.37
2023-04-02T22:46:25.617Z,10.03
2023-04-02T22:48:53.093Z,9.47
2023-04-02T22:51:21.721Z,9.87
2023-04-02T22:53:49.704Z,9.63
2023-04-02T22:56:22.169Z,9.47
2023-04-02T22:58:49.630Z,10.60
2023-04-02T23:01:21.485Z,10.27
2023-04-02T23:03:49.020Z,10.87
2023-04-02T23:06:18.201Z,9.87
2023-04-02T23:08:46.072Z,9.57
2023-04-02T23:11:18.613Z,10.17
2023-04-02T23:13:48.300Z,9.53
2023-04-02T23:16:16.391Z,9.43
2023-04-02T23:18:47.266Z,9.17
2023-04-02T23:21:15.941Z,8.00
2023-04-02T23:23:43.330Z,8.67
2023-04-02T23:26:13.128Z,8.57
2023-04-02T23:28:40.932Z,10.73
2023-04-02T23:31:11.829Z,10.50
2023-04-02T23:33:39.010Z,9.77
2023-04-02T23:36:29.865Z,9.40
2023-04-02T23:39:01.551Z,10.27
2023-04-02T23:41:30.138Z,10.53
2023-04-02T23:43:58.110Z,11.63
2023-04-02T23:46:25.963Z,11.43
2023-04-02T23:48:53.367Z,12.37
2023-04-02T23:51:20.802Z,12.27
2023-04-02T23:53:49.005Z,11.27
2023-04-02T23:56:16.297Z,11.67
2023-04-02T23:58:43.385Z,12.43
